Time;durP1;ratioP1;P1;durP2;ratioP2;P2;SDS_P1;SDS_P2;PMS_P1;PMS_P2;Temp;Humidity;BMP_temperature;BMP_pressure;BME280_temperature;BME280_humidity;BME280_pressure;Samples;Min_cycle;Max_cycle;Signal;HPM_P1;HPM_P2
2023/11/03 00:01:26;;;;;;;4.00;2.72;;;8.90;87.80;;;;;;4980368;28;20516;-63
2023/11/03 00:03:52;;;;;;;2.70;2.13;;;8.80;87.80;;;;;;4980282;28;20118;-62
2023/11/03 00:06:17;;;;;;;3.03;2.20;;;8.80;88.00;;;;;;4979870;28;20035;-63
2023/11/03 00:08:43;;;;;;;3.00;2.13;;;8.80;88.10;;;;;;4979360;28;20040;-64
2023/11/03 00:11:08;;;;;;;5.75;2.45;;;8.80;88.20;;;;;;4981622;28;20046;-63
2023/11/03 00:13:34;;;;;;;4.20;1.85;;;8.70;88.30;;;;;;4980411;28;20122;-63
2023/11/03 00:16:00;;;;;;;4.22;2.45;;;8.80;88.20;;;;;;4979417;28;20382;-62
2023/11/03 00:18:26;;;;;;;3.30;2.00;;;8.70;87.90;;;;;;4979698;28;20037;-63
2023/11/03 00:20:52;;;;;;;2.67;1.90;;;8.70;87.90;;;;;;4980340;28;20031;-63
2023/11/03 00:23:18;;;;;;;4.20;1.70;;;8.70;87.70;;;;;;4979782;28;20030;-63
2023/11/03 00:25:47;;;;;;;2.90;1.50;;;8.70;87.50;;;;;;4979589;28;20126;-63
2023/11/03 00:28:13;;;;;;;3.45;1.38;;;8.70;87.50;;;;;;4980310;28;20031;-64
2023/11/03 00:30:39;;;;;;;1.65;1.30;;;8.60;87.80;;;;;;4980184;28;20042;-63
2023/11/03 00:33:05;;;;;;;4.28;1.30;;;8.60;88.00;;;;;;4979453;28;20022;-63
2023/11/03 00:35:32;;;;;;;1.88;1.10;;;8.60;87.90;;;;;;4979694;28;20073;-63
2023/11/03 00:37:57;;;;;;;2.80;1.50;;;8.60;87.90;;;;;;4980120;28;20062;-63
2023/11/03 00:40:23;;;;;;;5.35;1.35;;;8.60;87.90;;;;;;4980920;28;20236;-63
2023/11/03 00:42:48;;;;;;;2.42;1.23;;;8.60;87.80;;;;;;4979854;28;20035;-63
2023/11/03 00:45:14;;;;;;;3.20;1.77;;;8.50;87.70;;;;;;4979457;28;20050;-63
2023/11/03 00:47:41;;;;;;;2.63;1.80;;;8.50;87.40;;;;;;4980664;28;20053;-61
2023/11/03 00:50:09;;;;;;;3.15;2.30;;;8.50;87.50;;;;;;4979636;28;20602;-63
2023/11/03 00:52:35;;;;;;;4.70;3.17;;;8.50;87.40;;;;;;4979018;28;20609;-63
2023/11/03 00:55:01;;;;;;;3.25;2.70;;;8.50;87.20;;;;;;4978574;28;20382;-63
2023/11/03 00:57:26;;;;;;;4.95;2.10;;;8.40;87.10;;;;;;4979522;28;20110;-63
2023/11/03 00:59:52;;;;;;;5.55;2.00;;;8.40;87.30;;;;;;4979496;28;20122;-63
2023/11/03 01:02:18;;;;;;;2.65;1.67;;;8.30;87.60;;;;;;4979729;28;20035;-63
2023/11/03 01:04:44;;;;;;;1.65;1.50;;;8.30;88.00;;;;;;4979165;28;20089;-61
2023/11/03 01:07:10;;;;;;;4.18;1.70;;;8.30;88.30;;;;;;4978944;28;20573;-62
2023/11/03 01:09:35;;;;;;;2.55;1.50;;;8.20;88.60;;;;;;4979433;28;20039;-63
2023/11/03 01:12:01;;;;;;;1.60;1.50;;;8.30;88.70;;;;;;4979688;28;20042;-63
2023/11/03 01:14:30;;;;;;;1.77;1.13;;;8.30;88.60;;;;;;4978358;28;20039;-64
2023/11/03 01:16:57;;;;;;;1.70;1.40;;;8.20;88.30;;;;;;4962002;28;20053;-62
2023/11/03 01:19:23;;;;;;;1.92;1.17;;;8.20;88.40;;;;;;4979420;28;20073;-63
2023/11/03 01:21:48;;;;;;;2.92;1.20;;;8.20;88.50;;;;;;4980024;28;20038;-63
2023/11/03 01:24:14;;;;;;;2.72;1.40;;;8.20;88.50;;;;;;4978425;28;20035;-63
2023/11/03 01:26:41;;;;;;;2.92;1.33;;;8.20;88.10;;;;;;4977380;28;20043;-63
2023/11/03 01:29:07;;;;;;;1.95;1.30;;;8.10;87.90;;;;;;4977937;28;20070;-63
2023/11/03 01:31:33;;;;;;;1.20;1.10;;;8.10;87.80;;;;;;4978998;28;20042;-63
2023/11/03 01:34:00;;;;;;;1.85;1.40;;;8.10;87.70;;;;;;4977497;28;20046;-63
2023/11/03 01:36:26;;;;;;;4.60;1.40;;;8.00;87.60;;;;;;4978126;28;20030;-64
2023/11/03 01:38:51;;;;;;;4.90;1.17;;;8.00;87.40;;;;;;4979105;28;20036;-63
2023/11/03 01:41:17;;;;;;;2.20;1.50;;;8.00;87.50;;;;;;4978169;28;20038;-63
2023/11/03 01:44:05;;;;;;;1.75;1.50;;;8.00;87.40;;;;;;4978464;28;20425;-63
2023/11/03 01:46:32;;;;;;;2.35;1.55;;;7.90;87.40;;;;;;4977311;28;20067;-63
2023/11/03 01:48:58;;;;;;;2.55;1.10;;;7.80;87.40;;;;;;4977524;28;20176;-62
2023/11/03 01:51:24;;;;;;;2.47;1.63;;;7.70;87.60;;;;;;4977926;28;20117;-63
2023/11/03 01:53:50;;;;;;;3.38;1.48;;;7.70;87.90;;;;;;4977749;28;20038;-62
2023/11/03 01:56:16;;;;;;;2.13;1.30;;;7.70;87.80;;;;;;4979609;28;20041;-63
2023/11/03 01:58:43;;;;;;;3.10;1.30;;;7.60;87.60;;;;;;4978861;28;20038;-63
2023/11/03 02:01:09;;;;;;;1.77;1.33;;;7.60;87.50;;;;;;4982092;28;20022;-62
2023/11/03 02:03:35;;;;;;;3.78;1.02;;;7.50;87.60;;;;;;4976518;28;20042;-63
2023/11/03 02:06:03;;;;;;;1.17;0.93;;;7.50;88.40;;;;;;4977769;28;20449;-63
2023/11/03 02:08:29;;;;;;;5.38;1.30;;;7.50;87.50;;;;;;4978324;28;20104;-63
2023/11/03 02:10:54;;;;;;;2.38;1.20;;;7.40;87.40;;;;;;4977742;28;20054;-63
2023/11/03 02:13:20;;;;;;;1.50;1.10;;;7.40;87.20;;;;;;4978672;28;20038;-63
2023/11/03 02:15:45;;;;;;;1.15;1.02;;;7.30;87.10;;;;;;4977242;28;20149;-63
2023/11/03 02:18:12;;;;;;;1.48;1.10;;;7.30;87.60;;;;;;4977591;28;20363;-63
2023/11/03 02:20:38;;;;;;;2.47;1.20;;;7.30;87.90;;;;;;4976839;28;20038;-63
2023/11/03 02:23:04;;;;;;;2.95;1.50;;;7.30;88.00;;;;;;4977642;28;20046;-63
2023/11/03 02:25:30;;;;;;;2.05;1.23;;;7.20;87.60;;;;;;4977068;28;20046;-63
2023/11/03 02:27:55;;;;;;;2.05;1.40;;;7.20;87.60;;;;;;4977754;28;20038;-63
2023/11/03 02:30:21;;;;;;;2.17;1.33;;;7.20;88.00;;;;;;4978639;28;20054;-62
2023/11/03 02:32:46;;;;;;;1.95;1.05;;;7.20;88.10;;;;;;4977411;28;20042;-63
2023/11/03 02:35:12;;;;;;;1.75;1.20;;;7.20;87.80;;;;;;4976890;28;20167;-63
2023/11/03 02:37:38;;;;;;;1.83;1.50;;;7.10;87.40;;;;;;4978166;28;20039;-63
2023/11/03 02:40:04;;;;;;;1.85;1.33;;;7.10;87.40;;;;;;4978589;28;20042;-63
2023/11/03 02:42:29;;;;;;;1.63;1.48;;;7.10;87.80;;;;;;4977427;28;20130;-62
2023/11/03 02:44:55;;;;;;;1.95;1.48;;;7.10;88.10;;;;;;4977902;28;20633;-64
2023/11/03 02:47:20;;;;;;;6.25;1.67;;;7.10;88.10;;;;;;4978753;28;20505;-62
2023/11/03 02:49:46;;;;;;;3.88;1.65;;;7.10;88.10;;;;;;4977693;28;20043;-64
2023/11/03 02:52:12;;;;;;;2.65;1.70;;;7.10;88.10;;;;;;4977942;28;20035;-62
2023/11/03 02:54:37;;;;;;;3.35;1.88;;;7.00;88.30;;;;;;4977309;28;20121;-63
2023/11/03 02:57:03;;;;;;;2.65;1.90;;;7.00;88.20;;;;;;4980061;28;20038;-63
2023/11/03 02:59:28;;;;;;;2.55;1.52;;;7.00;88.30;;;;;;4981894;28;20414;-63
2023/11/03 03:01:54;;;;;;;3.60;1.70;;;7.00;88.50;;;;;;4981913;28;20042;-61
2023/11/03 03:04:20;;;;;;;2.55;1.50;;;7.00;89.00;;;;;;4982337;28;20041;-63
2023/11/03 03:06:45;;;;;;;2.80;1.70;;;7.00;89.30;;;;;;4980447;28;20175;-63
2023/11/03 03:09:12;;;;;;;2.90;1.90;;;6.90;89.30;;;;;;4981321;28;20388;-62
2023/11/03 03:11:38;;;;;;;2.38;1.52;;;7.00;89.50;;;;;;4982098;28;20548;-62
2023/11/03 03:14:04;;;;;;;3.45;1.70;;;7.00;89.20;;;;;;4980951;28;20053;-63
2023/11/03 03:16:30;;;;;;;3.38;1.98;;;7.00;89.00;;;;;;4979941;28;20026;-63
2023/11/03 03:18:55;;;;;;;3.45;2.10;;;7.00;89.20;;;;;;4980156;28;20025;-63
2023/11/03 03:21:21;;;;;;;3.83;2.45;;;7.00;89.20;;;;;;4981288;28;20034;-62
2023/11/03 03:23:47;;;;;;;5.35;2.00;;;7.00;89.10;;;;;;4978988;28;20027;-63
2023/11/03 03:26:13;;;;;;;2.95;1.80;;;7.00;88.90;;;;;;4980399;28;20431;-63
2023/11/03 03:28:38;;;;;;;2.50;1.70;;;6.90;88.70;;;;;;4980048;28;20030;-63
2023/11/03 03:31:05;;;;;;;1.55;1.45;;;6.90;88.80;;;;;;4980050;28;20046;-62
2023/11/03 03:33:30;;;;;;;2.97;1.63;;;6.80;88.90;;;;;;4980213;28;20041;-61
2023/11/03 03:35:57;;;;;;;2.17;1.60;;;6.80;89.20;;;;;;4979684;28;20038;-63
2023/11/03 03:38:22;;;;;;;2.63;1.63;;;6.80;89.30;;;;;;4981377;28;20039;-62
2023/11/03 03:40:48;;;;;;;3.05;1.75;;;6.80;89.40;;;;;;4980475;28;20043;-62
2023/11/03 03:43:14;;;;;;;1.92;1.55;;;6.80;89.50;;;;;;4980797;28;20205;-63
2023/11/03 03:45:39;;;;;;;4.15;2.00;;;6.70;89.60;;;;;;4980750;28;20039;-62
2023/11/03 03:48:05;;;;;;;2.35;2.08;;;6.80;90.00;;;;;;4980094;28;20097;-63
2023/11/03 03:50:31;;;;;;;3.05;2.05;;;6.80;90.00;;;;;;4980349;28;20074;-63
2023/11/03 03:52:56;;;;;;;3.63;2.13;;;6.80;90.00;;;;;;4980322;28;20429;-63
2023/11/03 03:55:22;;;;;;;6.03;2.38;;;6.80;90.00;;;;;;4980781;28;20042;-63
2023/11/03 03:57:49;;;;;;;2.53;2.30;;;6.80;90.00;;;;;;4980499;28;20070;-63
2023/11/03 04:00:15;;;;;;;3.97;2.17;;;6.80;90.20;;;;;;4980703;28;20655;-61
2023/11/03 04:02:41;;;;;;;4.07;2.30;;;6.80;90.40;;;;;;4979708;28;20336;-63
2023/11/03 04:05:07;;;;;;;3.00;2.20;;;6.90;90.40;;;;;;4979911;28;20150;-63
2023/11/03 04:07:32;;;;;;;2.30;2.10;;;6.90;90.50;;;;;;4979067;28;20490;-63
2023/11/03 04:09:58;;;;;;;5.13;2.40;;;7.00;90.50;;;;;;4980396;28;20046;-63
2023/11/03 04:12:24;;;;;;;4.53;2.30;;;7.00;90.50;;;;;;4980187;28;20034;-62
2023/11/03 04:14:49;;;;;;;2.75;2.10;;;7.10;90.40;;;;;;4979754;28;20503;-63
2023/11/03 04:17:15;;;;;;;2.95;2.30;;;7.10;90.40;;;;;;4980393;28;20031;-62
2023/11/03 04:19:40;;;;;;;4.03;2.30;;;7.10;90.40;;;;;;4979433;28;20042;-63
2023/11/03 04:22:07;;;;;;;4.72;2.20;;;7.00;90.30;;;;;;4980239;28;20414;-63
2023/11/03 04:24:33;;;;;;;4.03;2.03;;;7.00;90.40;;;;;;4979649;28;20039;-63
2023/11/03 04:27:00;;;;;;;3.38;2.15;;;7.00;90.50;;;;;;4979985;28;20453;-63
2023/11/03 04:29:26;;;;;;;2.90;2.30;;;7.00;90.60;;;;;;4980716;28;20105;-62
2023/11/03 04:31:52;;;;;;;4.18;1.92;;;7.00;90.70;;;;;;4962413;28;20268;-63
2023/11/03 04:34:17;;;;;;;4.72;1.88;;;7.00;90.70;;;;;;4978899;28;20212;-63
2023/11/03 04:36:43;;;;;;;2.72;1.70;;;7.10;90.80;;;;;;4978038;28;20062;-62
2023/11/03 04:39:09;;;;;;;1.98;1.75;;;7.10;90.80;;;;;;4979240;28;20414;-62
2023/11/03 04:41:34;;;;;;;2.60;1.88;;;7.20;90.80;;;;;;4979006;28;20038;-63
2023/11/03 04:44:00;;;;;;;1.50;1.40;;;7.20;90.80;;;;;;4978856;28;20090;-63
2023/11/03 04:46:26;;;;;;;4.18;1.50;;;7.20;90.80;;;;;;4979366;28;20061;-63
2023/11/03 04:48:52;;;;;;;1.60;1.50;;;7.30;90.80;;;;;;4978868;28;20133;-62
2023/11/03 04:51:18;;;;;;;2.25;1.40;;;7.30;90.80;;;;;;4979668;28;20105;-63
2023/11/03 04:53:43;;;;;;;2.90;1.58;;;7.30;90.80;;;;;;4979864;28;20121;-63
2023/11/03 04:56:09;;;;;;;1.73;1.20;;;7.40;90.80;;;;;;4978630;28;20042;-63
2023/11/03 04:58:35;;;;;;;4.63;2.45;;;7.40;90.80;;;;;;4979252;28;20045;-63
2023/11/03 05:01:00;;;;;;;23.90;12.52;;;7.50;91.20;;;;;;4979531;28;20069;-63
2023/11/03 05:03:26;;;;;;;45.75;23.13;;;7.50;90.70;;;;;;4979329;28;20486;-62
2023/11/03 05:05:52;;;;;;;16.67;9.57;;;7.60;90.60;;;;;;4979381;28;20061;-63
2023/11/03 05:08:18;;;;;;;6.80;3.50;;;7.60;90.50;;;;;;4979293;28;20031;-63
2023/11/03 05:10:44;;;;;;;3.72;2.40;;;7.60;90.40;;;;;;4980503;28;20043;-63
2023/11/03 05:13:09;;;;;;;6.18;2.83;;;7.60;90.30;;;;;;4979616;28;20035;-63
2023/11/03 05:15:35;;;;;;;5.55;2.90;;;7.50;90.30;;;;;;4979339;28;20045;-63
2023/11/03 05:18:00;;;;;;;7.10;3.20;;;7.50;90.30;;;;;;4979269;28;20446;-63
2023/11/03 05:20:26;;;;;;;5.13;2.97;;;7.50;90.30;;;;;;4978354;28;20073;-64
2023/11/03 05:22:52;;;;;;;4.03;3.00;;;7.50;90.40;;;;;;4978210;28;20126;-62
2023/11/03 05:25:18;;;;;;;3.65;2.50;;;7.50;90.80;;;;;;4978095;28;20125;-63
2023/11/03 05:27:44;;;;;;;4.82;2.90;;;7.50;90.50;;;;;;4977917;28;20069;-62
2023/11/03 05:30:10;;;;;;;4.72;2.50;;;7.50;90.60;;;;;;4986939;28;20073;-65
2023/11/03 05:32:36;;;;;;;4.93;2.40;;;7.50;90.50;;;;;;4980387;28;20514;-63
2023/11/03 05:35:03;;;;;;;4.60;2.22;;;7.50;90.40;;;;;;4977384;28;20047;-62
2023/11/03 05:37:29;;;;;;;4.78;2.40;;;7.50;90.40;;;;;;4979440;28;20046;-63
2023/11/03 05:39:55;;;;;;;4.28;2.45;;;7.50;90.40;;;;;;4979068;28;20026;-63
2023/11/03 05:42:21;;;;;;;3.80;2.42;;;7.50;90.40;;;;;;4978221;28;20425;-63
2023/11/03 05:44:46;;;;;;;4.63;2.72;;;7.50;90.40;;;;;;4977430;28;20671;-63
2023/11/03 05:47:12;;;;;;;3.10;2.60;;;7.50;90.40;;;;;;4977384;28;20046;-62
2023/11/03 05:49:38;;;;;;;4.53;3.20;;;7.50;90.40;;;;;;4978075;28;20042;-63
2023/11/03 05:52:04;;;;;;;6.28;3.42;;;7.50;90.40;;;;;;4978150;28;20534;-63
2023/11/03 05:54:30;;;;;;;4.60;3.05;;;7.50;90.50;;;;;;4978341;28;20042;-63
2023/11/03 05:56:55;;;;;;;4.60;3.15;;;7.50;90.50;;;;;;4977689;28;20306;-63
2023/11/03 05:59:21;;;;;;;5.60;3.50;;;7.50;90.60;;;;;;4978053;28;20093;-63
2023/11/03 06:01:47;;;;;;;6.55;3.90;;;7.50;90.60;;;;;;4977615;28;20415;-62
2023/11/03 06:04:12;;;;;;;6.05;4.15;;;7.50;90.60;;;;;;4977656;28;20457;-62
2023/11/03 06:06:38;;;;;;;6.00;4.15;;;7.50;90.50;;;;;;4977583;28;20038;-63
2023/11/03 06:09:05;;;;;;;8.07;4.90;;;7.60;90.60;;;;;;4977928;28;20216;-62
2023/11/03 06:11:30;;;;;;;6.97;4.72;;;7.60;90.60;;;;;;4979955;28;20030;-63
2023/11/03 06:13:56;;;;;;;9.20;5.57;;;7.60;90.60;;;;;;4977998;28;20050;-62
2023/11/03 06:16:21;;;;;;;7.47;5.82;;;7.60;90.60;;;;;;4977682;28;20031;-63
2023/11/03 06:18:48;;;;;;;8.02;5.80;;;7.60;90.90;;;;;;4977561;28;20417;-62
2023/11/03 06:21:13;;;;;;;8.65;6.18;;;7.70;90.60;;;;;;4977925;28;20038;-63
2023/11/03 06:23:39;;;;;;;9.02;6.75;;;7.70;90.50;;;;;;4978202;28;20552;-63
2023/11/03 06:26:05;;;;;;;12.77;7.05;;;7.70;90.50;;;;;;4977510;28;20038;-62
2023/11/03 06:28:31;;;;;;;10.27;7.00;;;7.70;90.40;;;;;;4978108;28;20031;-63
2023/11/03 06:30:57;;;;;;;10.90;6.80;;;7.70;90.40;;;;;;4976383;28;20031;-62
2023/11/03 06:33:22;;;;;;;9.57;7.05;;;7.70;90.40;;;;;;4977345;28;20027;-63
2023/11/03 06:35:49;;;;;;;9.60;7.22;;;7.70;90.50;;;;;;4976668;28;20053;-63
2023/11/03 06:38:14;;;;;;;10.82;7.15;;;7.70;90.60;;;;;;4977611;28;20035;-63
2023/11/03 06:40:40;;;;;;;9.30;6.85;;;7.80;91.00;;;;;;4977124;28;20035;-63
2023/11/03 06:43:06;;;;;;;8.73;6.60;;;7.80;90.60;;;;;;4959704;28;20061;-63
2023/11/03 06:45:32;;;;;;;9.88;6.47;;;7.80;90.60;;;;;;4977173;28;20046;-63
2023/11/03 06:47:59;;;;;;;9.32;6.13;;;7.90;90.60;;;;;;4976840;28;20057;-63
2023/11/03 06:50:24;;;;;;;8.75;6.22;;;7.90;90.60;;;;;;4977073;28;20062;-61
2023/11/03 06:52:50;;;;;;;7.97;6.07;;;7.90;90.50;;;;;;4977296;28;20054;-63
2023/11/03 06:55:17;;;;;;;10.07;6.05;;;7.90;90.50;;;;;;4976599;28;20043;-63
2023/11/03 06:57:42;;;;;;;6.75;5.30;;;8.00;90.50;;;;;;4977209;28;20043;-62
2023/11/03 07:00:09;;;;;;;7.22;5.28;;;8.00;90.40;;;;;;4977154;28;20046;-63
2023/11/03 07:02:35;;;;;;;7.57;5.10;;;8.00;90.40;;;;;;4977401;28;20043;-62
2023/11/03 07:05:02;;;;;;;7.57;4.93;;;8.00;90.40;;;;;;4976923;28;20042;-62
2023/11/03 07:07:28;;;;;;;7.32;5.47;;;8.10;90.40;;;;;;4977718;28;20129;-62
2023/11/03 07:09:54;;;;;;;8.38;5.30;;;8.10;90.50;;;;;;4977439;28;20255;-63
2023/11/03 07:12:20;;;;;;;8.30;5.75;;;8.10;90.50;;;;;;4975812;28;20039;-63
2023/11/03 07:14:47;;;;;;;8.32;5.50;;;8.10;90.50;;;;;;4976228;28;20184;-63
2023/11/03 07:17:13;;;;;;;8.80;4.47;;;8.20;90.40;;;;;;4977577;28;20125;-63
2023/11/03 07:19:40;;;;;;;5.75;4.18;;;8.20;90.40;;;;;;4978212;28;20222;-62
2023/11/03 07:22:06;;;;;;;5.85;3.40;;;8.20;90.40;;;;;;4977584;28;20050;-62
2023/11/03 07:24:31;;;;;;;5.32;3.13;;;8.20;90.40;;;;;;4977033;28;20442;-63
2023/11/03 07:26:58;;;;;;;7.07;3.05;;;8.30;90.40;;;;;;4977011;28;20034;-63
2023/11/03 07:29:24;;;;;;;3.85;2.33;;;8.30;90.40;;;;;;4977280;28;20077;-62
2023/11/03 07:31:49;;;;;;;2.83;2.03;;;8.30;90.40;;;;;;4976595;28;20505;-62
2023/11/03 07:34:15;;;;;;;4.70;2.10;;;8.30;90.30;;;;;;4976667;28;20108;-63
2023/11/03 07:36:41;;;;;;;3.72;2.10;;;8.30;90.30;;;;;;4977467;28;20494;-62
2023/11/03 07:39:06;;;;;;;4.60;2.08;;;8.30;90.30;;;;;;4977056;28;20030;-63
2023/11/03 07:41:35;;;;;;;3.88;2.13;;;8.30;90.40;;;;;;4976897;28;20046;-62
2023/11/03 07:44:02;;;;;;;3.53;1.92;;;8.30;90.40;;;;;;4979731;28;20038;-63
2023/11/03 07:46:30;;;;;;;5.82;1.95;;;8.30;90.40;;;;;;4979203;28;20035;-62
2023/11/03 07:49:00;;;;;;;4.50;1.65;;;8.40;90.30;;;;;;4980441;28;20023;-63
2023/11/03 07:51:26;;;;;;;4.35;1.95;;;8.40;90.30;;;;;;4980265;28;20165;-63
2023/11/03 07:53:52;;;;;;;3.67;1.70;;;8.40;90.30;;;;;;4980646;28;20042;-62
2023/11/03 07:56:18;;;;;;;3.53;1.77;;;8.40;90.30;;;;;;4979305;28;20503;-62
2023/11/03 07:58:45;;;;;;;3.38;1.50;;;8.40;90.30;;;;;;4980052;28;20031;-62
2023/11/03 08:01:11;;;;;;;4.65;1.45;;;8.40;90.30;;;;;;4962135;28;20473;-63
2023/11/03 08:03:37;;;;;;;2.90;1.20;;;8.40;90.30;;;;;;4979853;28;20030;-63
2023/11/03 08:06:04;;;;;;;3.20;1.20;;;8.40;90.30;;;;;;4979777;28;20402;-63
2023/11/03 08:08:29;;;;;;;2.63;1.27;;;8.40;90.30;;;;;;4961846;28;20027;-63
2023/11/03 08:10:55;;;;;;;4.55;1.40;;;8.50;90.30;;;;;;4979545;28;20023;-62
2023/11/03 08:13:24;;;;;;;4.30;1.48;;;8.40;90.30;;;;;;4980313;28;20271;-61
2023/11/03 08:15:50;;;;;;;3.25;1.40;;;8.50;90.40;;;;;;4979661;28;20573;-61
2023/11/03 08:18:16;;;;;;;3.65;1.52;;;8.50;90.40;;;;;;4980045;28;20494;-62
2023/11/03 08:20:42;;;;;;;4.38;1.60;;;8.50;90.40;;;;;;4979463;28;20311;-63
2023/11/03 08:23:07;;;;;;;4.40;1.30;;;8.50;90.40;;;;;;4979764;28;20038;-63
2023/11/03 08:25:33;;;;;;;3.40;1.30;;;8.50;90.40;;;;;;4979566;28;20026;-62
2023/11/03 08:27:59;;;;;;;2.92;1.20;;;8.50;90.40;;;;;;4980483;28;20572;-61
2023/11/03 08:30:25;;;;;;;3.35;1.40;;;8.50;90.40;;;;;;4979404;28;20042;-63
2023/11/03 08:32:50;;;;;;;2.97;1.20;;;8.50;90.40;;;;;;4980254;28;20030;-61
2023/11/03 08:35:20;;;;;;;4.60;1.40;;;8.60;90.40;;;;;;4978537;28;20343;-63
2023/11/03 08:37:46;;;;;;;3.85;1.30;;;8.60;90.40;;;;;;4979301;28;20045;-63
2023/11/03 08:40:15;;;;;;;3.63;1.70;;;8.60;90.40;;;;;;4979427;28;20038;-62
2023/11/03 08:42:43;;;;;;;5.00;1.35;;;8.60;90.40;;;;;;4961904;28;20039;-63
2023/11/03 08:45:13;;;;;;;4.90;1.58;;;8.60;90.40;;;;;;4979432;28;20049;-63
2023/11/03 08:47:41;;;;;;;7.88;2.00;;;8.70;90.40;;;;;;4978839;28;20138;-63
2023/11/03 08:50:11;;;;;;;5.35;1.67;;;8.70;90.40;;;;;;4979083;28;20046;-63
2023/11/03 08:52:37;;;;;;;5.55;1.60;;;8.70;90.40;;;;;;4978026;28;20421;-63
2023/11/03 08:55:06;;;;;;;4.28;1.65;;;8.70;90.40;;;;;;4977788;28;20117;-63
2023/11/03 08:57:36;;;;;;;5.03;1.77;;;8.70;90.30;;;;;;4978822;28;20046;-63
2023/11/03 09:00:15;;;;;;;4.80;2.08;;;8.80;90.20;;;;;;4979836;28;20126;-62
2023/11/03 09:02:47;;;;;;;5.43;2.00;;;8.80;90.20;;;;;;4977861;28;20050;-63
2023/11/03 09:05:14;;;;;;;5.60;1.90;;;8.80;90.20;;;;;;4980023;28;20140;-62
2023/11/03 09:07:42;;;;;;;6.65;1.92;;;8.90;90.20;;;;;;4980475;28;20553;-63
2023/11/03 09:10:11;;;;;;;4.13;1.45;;;8.80;90.20;;;;;;4980385;28;20158;-62
2023/11/03 09:12:38;;;;;;;4.18;1.30;;;8.90;90.20;;;;;;4980139;28;20042;-62
2023/11/03 09:15:08;;;;;;;5.95;1.48;;;8.90;90.20;;;;;;4980152;28;20533;-62
2023/11/03 09:17:34;;;;;;;4.22;1.60;;;8.90;90.10;;;;;;4980561;28;20554;-62
2023/11/03 09:20:04;;;;;;;4.75;1.48;;;8.90;90.10;;;;;;4980103;28;20517;-62
2023/11/03 09:22:30;;;;;;;4.38;1.17;;;8.90;90.10;;;;;;4979420;28;20058;-63
2023/11/03 09:24:56;;;;;;;4.03;1.50;;;9.00;90.10;;;;;;4979717;28;20113;-63
2023/11/03 09:27:25;;;;;;;3.40;1.13;;;9.00;90.10;;;;;;4980221;28;20049;-62
2023/11/03 09:29:51;;;;;;;4.68;1.80;;;9.00;90.00;;;;;;4980221;28;20030;-63
2023/11/03 09:32:17;;;;;;;3.88;1.10;;;9.00;90.00;;;;;;4961423;28;20047;-63
2023/11/03 09:34:46;;;;;;;5.97;1.08;;;9.00;89.90;;;;;;4978748;28;20046;-63
2023/11/03 09:37:15;;;;;;;2.45;1.00;;;9.10;89.90;;;;;;4979784;28;20280;-62
2023/11/03 09:39:42;;;;;;;5.45;1.20;;;9.10;89.70;;;;;;4980246;28;21045;-62
2023/11/03 09:42:16;;;;;;;4.50;1.20;;;9.10;89.70;;;;;;4979532;28;20624;-62
2023/11/03 09:44:42;;;;;;;4.17;1.13;;;9.00;89.50;;;;;;4979097;28;20069;-62
2023/11/03 09:47:10;;;;;;;3.80;1.40;;;9.10;89.50;;;;;;4979375;28;20445;-61
2023/11/03 09:49:36;;;;;;;8.25;1.38;;;9.10;89.50;;;;;;4980307;28;20470;-62
2023/11/03 09:52:04;;;;;;;5.05;1.38;;;9.10;89.50;;;;;;4981044;28;20034;-63
2023/11/03 09:54:35;;;;;;;4.93;1.70;;;9.20;89.40;;;;;;4979288;28;20561;-62
2023/11/03 09:57:08;;;;;;;4.28;1.60;;;9.20;89.30;;;;;;4960810;28;20054;-63
2023/11/03 09:59:34;;;;;;;4.78;1.63;;;9.20;89.20;;;;;;4980777;28;20121;-61
2023/11/03 10:02:09;;;;;;;5.97;2.10;;;9.20;89.10;;;;;;4979547;28;20465;-63
2023/11/03 10:04:36;;;;;;;2.83;1.70;;;9.20;89.00;;;;;;4979017;28;20058;-62
2023/11/03 10:07:01;;;;;;;4.03;1.95;;;9.20;89.90;;;;;;4978498;28;20034;-63
2023/11/03 10:09:28;;;;;;;3.25;1.48;;;9.20;89.00;;;;;;4979470;28;20042;-63
2023/11/03 10:11:54;;;;;;;5.05;1.38;;;9.30;89.00;;;;;;4978454;28;20062;-61
2023/11/03 10:14:19;;;;;;;5.97;1.27;;;9.30;89.00;;;;;;4979245;28;20042;-63
2023/11/03 10:16:48;;;;;;;6.38;1.33;;;9.30;89.00;;;;;;4978614;28;20063;-62
2023/11/03 10:19:14;;;;;;;2.72;1.00;;;9.30;88.70;;;;;;4978745;28;20030;-63
2023/11/03 10:21:39;;;;;;;5.38;1.20;;;9.40;88.50;;;;;;4979333;28;20034;-62
2023/11/03 10:24:05;;;;;;;3.58;1.20;;;9.40;88.30;;;;;;4978753;28;20027;-63
2023/11/03 10:26:33;;;;;;;4.82;0.95;;;9.40;88.30;;;;;;4979817;28;20041;-63
2023/11/03 10:29:03;;;;;;;3.72;1.00;;;9.40;88.30;;;;;;4979399;28;20022;-63
2023/11/03 10:31:29;;;;;;;3.90;1.10;;;9.40;87.90;;;;;;4979439;28;20031;-63
2023/11/03 10:33:55;;;;;;;1.67;0.93;;;9.40;87.60;;;;;;4978272;28;20034;-62
2023/11/03 10:36:21;;;;;;;3.25;0.88;;;9.40;87.50;;;;;;4978683;28;20039;-61
2023/11/03 10:38:47;;;;;;;3.08;0.80;;;9.40;87.60;;;;;;4978433;28;20041;-63
2023/11/03 10:41:16;;;;;;;3.53;1.08;;;9.50;87.80;;;;;;4960894;28;20037;-62
2023/11/03 10:43:45;;;;;;;3.42;1.00;;;9.50;87.80;;;;;;4979825;28;20142;-63
2023/11/03 10:46:20;;;;;;;7.10;1.58;;;9.40;87.40;;;;;;4978325;28;20035;-63
2023/11/03 10:48:51;;;;;;;2.40;1.00;;;9.50;87.40;;;;;;4978628;28;20042;-63
2023/11/03 10:51:16;;;;;;;2.90;1.10;;;9.50;87.40;;;;;;4978408;28;20050;-61
2023/11/03 10:54:22;;;;;;;3.92;1.20;;;9.50;87.10;;;;;;4979093;28;20042;-63
2023/11/03 10:56:49;;;;;;;3.50;1.17;;;9.50;86.60;;;;;;4963109;28;20061;-63
2023/11/03 10:59:17;;;;;;;4.28;1.10;;;9.60;87.20;;;;;;4979773;28;20362;-62
2023/11/03 11:02:06;;;;;;;3.83;0.90;;;9.50;87.00;;;;;;4979090;28;20125;-63
2023/11/03 11:04:50;;;;;;;5.68;1.40;;;9.60;86.60;;;;;;4978895;28;20133;-63
2023/11/03 11:07:18;;;;;;;2.90;1.10;;;9.60;86.50;;;;;;4979156;28;20093;-63
2023/11/03 11:09:45;;;;;;;4.80;1.40;;;9.60;86.90;;;;;;4978781;28;20070;-62
2023/11/03 11:12:13;;;;;;;4.63;1.30;;;9.60;86.70;;;;;;4976652;28;20038;-63
2023/11/03 11:14:40;;;;;;;4.97;0.98;;;9.60;86.50;;;;;;4978614;28;20031;-61
2023/11/03 11:17:10;;;;;;;5.53;1.25;;;9.70;86.40;;;;;;4980625;28;20513;-63
2023/11/03 11:19:42;;;;;;;3.58;1.00;;;9.70;86.20;;;;;;4982767;28;20538;-63
2023/11/03 11:22:08;;;;;;;4.25;1.27;;;9.70;86.20;;;;;;4982656;28;20035;-63
2023/11/03 11:24:37;;;;;;;5.72;1.10;;;9.70;86.10;;;;;;4981896;28;20050;-63
2023/11/03 11:27:19;;;;;;;4.80;1.30;;;9.70;86.00;;;;;;4981977;28;20046;-62
2023/11/03 11:29:46;;;;;;;3.47;1.10;;;9.70;85.50;;;;;;4982540;28;20092;-63
2023/11/03 11:32:12;;;;;;;2.72;1.10;;;9.70;86.00;;;;;;4982055;28;20247;-63
2023/11/03 11:34:40;;;;;;;1.67;0.90;;;9.70;86.00;;;;;;4981669;28;20117;-63
2023/11/03 11:37:27;;;;;;;2.13;0.88;;;9.70;85.90;;;;;;4981364;28;20034;-63
2023/11/03 11:40:00;;;;;;;4.57;1.00;;;9.70;85.30;;;;;;4981943;28;20046;-61
2023/11/03 11:42:37;;;;;;;2.53;0.82;;;9.70;85.70;;;;;;4981598;28;20287;-63
2023/11/03 11:45:13;;;;;;;4.78;1.20;;;9.70;85.20;;;;;;4981626;28;20037;-63
2023/11/03 11:47:46;;;;;;;3.53;1.45;;;9.70;85.50;;;;;;4981302;28;20038;-62
2023/11/03 11:50:15;;;;;;;5.47;1.33;;;9.70;85.00;;;;;;4982725;28;20290;-61
2023/11/03 11:52:42;;;;;;;2.28;1.13;;;9.70;85.40;;;;;;4981691;28;20449;-63
2023/11/03 11:55:09;;;;;;;2.00;1.00;;;9.70;85.40;;;;;;4970631;28;20588;-63
2023/11/03 11:57:37;;;;;;;3.40;0.88;;;9.70;85.50;;;;;;4981970;28;20057;-63
2023/11/03 12:00:04;;;;;;;5.43;1.10;;;9.70;85.20;;;;;;4981773;28;20063;-63
2023/11/03 12:02:33;;;;;;;2.22;1.10;;;9.70;85.10;;;;;;4981021;28;20030;-62
2023/11/03 12:04:58;;;;;;;2.13;1.00;;;9.70;84.90;;;;;;4981277;28;20485;-63
2023/11/03 12:07:26;;;;;;;4.82;1.23;;;9.70;85.00;;;;;;4982497;28;20042;-63
2023/11/03 12:09:53;;;;;;;2.78;1.10;;;9.70;84.70;;;;;;4981435;28;20031;-62
2023/11/03 12:12:20;;;;;;;2.63;0.88;;;9.70;84.70;;;;;;4979559;28;20566;-63
2023/11/03 12:14:47;;;;;;;2.50;1.05;;;9.80;84.60;;;;;;4980622;28;20101;-62
2023/11/03 12:17:16;;;;;;;6.93;1.65;;;9.70;84.50;;;;;;4981327;28;20085;-63
2023/11/03 12:19:46;;;;;;;3.70;1.20;;;9.80;84.70;;;;;;4981500;28;20038;-61
2023/11/03 12:22:26;;;;;;;1.98;1.00;;;9.70;84.60;;;;;;4981175;28;20039;-62
2023/11/03 12:24:55;;;;;;;0.95;0.50;;;9.80;85.00;;;;;;4982087;28;20039;-63
2023/11/03 12:27:24;;;;;;;1.35;0.70;;;9.80;85.30;;;;;;4981160;28;20116;-62
2023/11/03 12:29:51;;;;;;;2.33;0.82;;;9.80;84.30;;;;;;4978994;28;20380;-62
2023/11/03 12:32:17;;;;;;;3.28;1.15;;;9.80;84.30;;;;;;4981779;28;20525;-61
2023/11/03 12:34:45;;;;;;;2.05;0.80;;;9.80;84.50;;;;;;4979203;28;20038;-62
2023/11/03 12:37:12;;;;;;;3.95;1.00;;;9.80;84.30;;;;;;4980511;28;20513;-63
2023/11/03 12:39:51;;;;;;;2.28;0.70;;;9.80;84.40;;;;;;4981387;28;20031;-62
2023/11/03 12:42:18;;;;;;;1.75;0.60;;;9.90;84.00;;;;;;4982745;28;20066;-62
2023/11/03 12:44:56;;;;;;;1.38;0.70;;;9.90;84.40;;;;;;4980059;28;20057;-63
2023/11/03 12:47:49;;;;;;;1.27;0.63;;;10.00;83.60;;;;;;4981383;28;20045;-63
2023/11/03 12:50:17;;;;;;;2.88;0.60;;;10.00;83.30;;;;;;4980795;28;20065;-62
2023/11/03 12:52:55;;;;;;;1.27;0.57;;;9.90;83.60;;;;;;4980182;28;20220;-62
2023/11/03 12:55:29;;;;;;;1.05;0.50;;;9.90;84.20;;;;;;4979979;28;20502;-63
2023/11/03 12:57:56;;;;;;;5.38;0.70;;;9.90;83.40;;;;;;4980808;28;20486;-63